Terminal Aerodrome Forecast
Issued by NWS Billings, MT

Home | Current Version | Previous Version | Text Only | Print | Product List | Glossary On
Versions: 1 2 3 4 5 6 7 8 9 10 11 12 13 14 15 16 17 18 19 20
000
FTUS45 KBYZ 231739
TAFMLS
TAF
KMLS 231739Z 2318/2418 36007KT P6SM VCSH SCT009 OVC015
      TEMPO 2318/2320 VRB03KT BKN009
     FM240200 35009KT 3SM RA BR BKN010 OVC020
     FM240700 33012KT P6SM VCSH BKN015 OVC030
     FM241200 30015G25KT 6SM -RA BKN015=

USA.gov is the U.S. government's official web portal to all federal, state and local government web resources and services.